Time;durP1;ratioP1;P1;durP2;ratioP2;P2;SDS_P1;SDS_P2;PMS_P1;PMS_P2;Temp;Humidity;BMP_temperature;BMP_pressure;BME280_temperature;BME280_humidity;BME280_pressure;Samples;Min_cycle;Max_cycle;Signal;HPM_P1;HPM_P2
2023/06/24 00:06:32;;;;;;;7.3;3.7;;;;;;;19.18;81.31;;;;;
2023/06/24 00:17:32;;;;;;;5.2;3.2;;;;;;;19.31;80.8;;;;;
2023/06/24 00:28:33;;;;;;;5.2;3.2;;;;;;;19.23;80.48;;;;;
2023/06/24 00:39:33;;;;;;;5.2;3.2;;;;;;;19.33;80.29;;;;;
2023/06/24 00:49:32;;;;;;;6;3.9;;;;;;;19.21;80.3;;;;;
2023/06/24 01:00:34;;;;;;;6;3.9;;;;;;;19.22;80.04;;;;;
2023/06/24 01:11:32;;;;;;;6;3.9;;;;;;;19.17;79.23;;;;;
2023/06/24 01:21:32;;;;;;;5.7;2.7;;;;;;;19.11;79.13;;;;;
2023/06/24 01:31:32;;;;;;;5.7;2.7;;;;;;;19.11;79.43;;;;;
2023/06/24 01:41:32;;;;;;;5.7;2.7;;;;;;;19.11;78.58;;;;;
2023/06/24 01:52:32;;;;;;;5.8;3;;;;;;;19.06;78.66;;;;;
2023/06/24 02:02:32;;;;;;;5.8;3;;;;;;;19.17;78.55;;;;;
2023/06/24 02:13:32;;;;;;;5.8;3;;;;;;;19.14;78.68;;;;;
2023/06/24 02:23:33;;;;;;;6.4;3.6;;;;;;;19.07;79.09;;;;;
2023/06/24 02:34:32;;;;;;;6.4;3.6;;;;;;;19.07;79.28;;;;;
2023/06/24 02:45:32;;;;;;;6.4;3.6;;;;;;;19.11;79.08;;;;;
2023/06/24 02:56:32;;;;;;;6;3.4;;;;;;;19.04;79.24;;;;;
2023/06/24 03:06:32;;;;;;;6;3.4;;;;;;;19.01;79.23;;;;;
2023/06/24 03:17:32;;;;;;;6.4;3.4;;;;;;;19.01;80.14;;;;;
2023/06/24 03:27:33;;;;;;;6.4;3.4;;;;;;;18.99;80.95;;;;;
2023/06/24 03:37:32;;;;;;;6.4;3.4;;;;;;;18.93;81.47;;;;;
2023/06/24 03:47:32;;;;;;;6.4;3.5;;;;;;;18.89;81.78;;;;;
2023/06/24 03:58:32;;;;;;;6.4;3.5;;;;;;;18.88;82.15;;;;;
2023/06/24 04:09:32;;;;;;;6.4;3.5;;;;;;;18.85;82.11;;;;;
2023/06/24 04:20:34;;;;;;;6.7;3.9;;;;;;;18.8;83.03;;;;;
2023/06/24 04:30:35;;;;;;;6.7;3.9;;;;;;;18.7;83.69;;;;;
2023/06/24 04:41:32;;;;;;;6.7;3.9;;;;;;;18.64;84;;;;;
2023/06/24 04:52:32;;;;;;;5.3;3.4;;;;;;;18.64;83.71;;;;;
2023/06/24 05:02:32;;;;;;;5.3;3.4;;;;;;;18.61;83.8;;;;;
2023/06/24 05:13:32;;;;;;;5.3;3.4;;;;;;;18.68;83.55;;;;;
2023/06/24 05:23:32;;;;;;;7.5;4.3;;;;;;;18.63;85.04;;;;;
2023/06/24 05:34:33;;;;;;;7.5;4.3;;;;;;;18.48;86.32;;;;;
2023/06/24 05:44:33;;;;;;;7.5;4.3;;;;;;;18.48;87.06;;;;;
2023/06/24 05:55:32;;;;;;;7.8;4.8;;;;;;;18.82;86.19;;;;;
2023/06/24 06:06:32;;;;;;;7.8;4.8;;;;;;;18.78;86.01;;;;;
2023/06/24 06:17:33;;;;;;;7.9;5.7;;;;;;;18.96;86.2;;;;;
2023/06/24 06:27:32;;;;;;;7.9;5.7;;;;;;;18.86;86;;;;;
2023/06/24 06:38:32;;;;;;;7.9;5.7;;;;;;;18.84;86.85;;;;;
2023/06/24 06:49:32;;;;;;;11.2;7.4;;;;;;;18.9;86.72;;;;;
2023/06/24 06:59:32;;;;;;;11.2;7.4;;;;;;;18.84;87.64;;;;;
2023/06/24 07:09:32;;;;;;;11.2;7.4;;;;;;;18.8;87.82;;;;;
2023/06/24 07:19:33;;;;;;;10.9;7.8;;;;;;;18.9;87.64;;;;;
2023/06/24 07:30:32;;;;;;;10.9;7.8;;;;;;;19.3;87.86;;;;;
2023/06/24 07:40:32;;;;;;;10.9;7.8;;;;;;;19.27;87;;;;;
2023/06/24 07:50:32;;;;;;;11.8;8.8;;;;;;;19.28;87.12;;;;;
2023/06/24 08:00:32;;;;;;;11.8;8.8;;;;;;;19.31;86.61;;;;;
2023/06/24 08:11:32;;;;;;;11.8;8.8;;;;;;;19.29;86.57;;;;;
2023/06/24 08:21:34;;;;;;;17.9;11.8;;;;;;;19.33;87.11;;;;;
2023/06/24 08:32:32;;;;;;;17.9;11.8;;;;;;;19.39;86.84;;;;;
2023/06/24 08:42:32;;;;;;;17.9;11.8;;;;;;;19.56;87.32;;;;;
2023/06/24 08:53:32;;;;;;;21.2;14.9;;;;;;;19.82;85.76;;;;;
2023/06/24 09:03:32;;;;;;;21.2;14.9;;;;;;;19.54;84.35;;;;;
2023/06/24 09:13:32;;;;;;;21.2;14.9;;;;;;;19.46;83.24;;;;;
2023/06/24 09:24:32;;;;;;;15.1;11;;;;;;;19.78;83.07;;;;;
2023/06/24 09:35:32;;;;;;;15.1;11;;;;;;;20.64;79.3;;;;;
2023/06/24 09:45:32;;;;;;;15.1;11;;;;;;;20.57;79.72;;;;;
2023/06/24 09:55:32;;;;;;;13.4;8.1;;;;;;;20.58;80.24;;;;;
2023/06/24 10:06:32;;;;;;;13.4;8.1;;;;;;;20.35;79.57;;;;;
2023/06/24 10:16:32;;;;;;;10.9;7.5;;;;;;;20.27;80.8;;;;;
2023/06/24 10:26:32;;;;;;;10.9;7.5;;;;;;;20.46;79.51;;;;;
2023/06/24 10:37:32;;;;;;;10.9;7.5;;;;;;;20.71;77.14;;;;;
2023/06/24 10:47:33;;;;;;;11.7;7.2;;;;;;;20.92;78.44;;;;;
2023/06/24 10:57:32;;;;;;;11.7;7.2;;;;;;;20.64;78.45;;;;;
2023/06/24 11:07:34;;;;;;;11.7;7.2;;;;;;;20.49;78.2;;;;;
2023/06/24 11:18:32;;;;;;;10.5;7.4;;;;;;;20.92;78.11;;;;;
2023/06/24 11:28:33;;;;;;;10.5;7.4;;;;;;;20.92;79.16;;;;;
2023/06/24 11:38:32;;;;;;;10.5;7.4;;;;;;;20.88;79.82;;;;;
2023/06/24 11:48:32;;;;;;;11.9;8.9;;;;;;;20.66;80.4;;;;;
2023/06/24 11:58:32;;;;;;;11.9;8.9;;;;;;;20.36;80.44;;;;;
2023/06/24 12:09:32;;;;;;;11.9;8.9;;;;;;;20.43;80.68;;;;;
2023/06/24 12:19:32;;;;;;;14.2;9.8;;;;;;;20.24;80.98;;;;;
2023/06/24 12:29:35;;;;;;;14.2;9.8;;;;;;;19.9;79.97;;;;;
2023/06/24 12:39:32;;;;;;;14.2;9.8;;;;;;;19.49;76.68;;;;;
2023/06/24 12:49:32;;;;;;;9.5;5.6;;;;;;;19.07;78.28;;;;;
2023/06/24 12:59:32;;;;;;;9.5;5.6;;;;;;;18.93;78.76;;;;;
2023/06/24 13:09:33;;;;;;;9.5;5.6;;;;;;;19.01;77.96;;;;;
2023/06/24 13:19:32;;;;;;;8.5;4;;;;;;;19.11;76.61;;;;;
2023/06/24 13:30:33;;;;;;;8.5;4;;;;;;;19.38;75.42;;;;;
2023/06/24 13:40:33;;;;;;;8.5;4;;;;;;;19.53;76.48;;;;;
2023/06/24 13:51:33;;;;;;;7;4.5;;;;;;;19.48;79.43;;;;;
2023/06/24 14:01:32;;;;;;;7;4.5;;;;;;;19.54;78.88;;;;;
2023/06/24 14:12:33;;;;;;;7;4.5;;;;;;;19.34;80.13;;;;;
2023/06/24 14:22:32;;;;;;;6.7;3.4;;;;;;;19.43;79.55;;;;;
2023/06/24 14:32:32;;;;;;;6.7;3.4;;;;;;;19.04;79.71;;;;;
2023/06/24 14:42:33;;;;;;;6.7;3.4;;;;;;;19.05;79.5;;;;;
2023/06/24 14:53:32;;;;;;;14.6;9.3;;;;;;;19;79.82;;;;;
2023/06/24 15:04:32;;;;;;;14.6;9.3;;;;;;;18.75;82.75;;;;;
2023/06/24 15:14:33;;;;;;;14.6;9.3;;;;;;;18.59;82.56;;;;;
2023/06/24 15:25:35;;;;;;;10.8;8;;;;;;;18.47;83.35;;;;;
2023/06/24 15:35:32;;;;;;;10.8;8;;;;;;;18.31;84.13;;;;;
2023/06/24 15:45:32;;;;;;;10.8;8;;;;;;;18.5;84.59;;;;;
2023/06/24 15:55:33;;;;;;;12.1;7.4;;;;;;;18.37;85.07;;;;;
2023/06/24 16:06:34;;;;;;;12.1;7.4;;;;;;;18.36;84.61;;;;;
2023/06/24 16:16:33;;;;;;;10.5;7.6;;;;;;;18.26;85.48;;;;;
2023/06/24 16:26:33;;;;;;;10.5;7.6;;;;;;;18.17;86;;;;;
2023/06/24 16:37:33;;;;;;;10.5;7.6;;;;;;;17.94;85.11;;;;;
2023/06/24 16:48:33;;;;;;;10.2;7.6;;;;;;;17.57;84.82;;;;;
2023/06/24 16:58:33;;;;;;;10.2;7.6;;;;;;;17.47;85.13;;;;;
2023/06/24 17:09:33;;;;;;;10.2;7.6;;;;;;;17.27;85.76;;;;;
2023/06/24 17:19:33;;;;;;;10;6.2;;;;;;;17.19;84.69;;;;;
2023/06/24 17:29:33;;;;;;;10;6.2;;;;;;;17.03;84.19;;;;;
2023/06/24 17:40:33;;;;;;;10;6.2;;;;;;;17.04;83.75;;;;;
2023/06/24 17:51:33;;;;;;;9.6;6.1;;;;;;;16.9;84.93;;;;;
2023/06/24 18:02:33;;;;;;;9.6;6.1;;;;;;;16.84;84.91;;;;;
2023/06/24 18:12:33;;;;;;;9.6;6.1;;;;;;;16.63;85.29;;;;;
2023/06/24 18:23:33;;;;;;;9.4;5.4;;;;;;;16.48;85.83;;;;;
2023/06/24 18:33:33;;;;;;;9.4;5.4;;;;;;;16.44;86.14;;;;;
2023/06/24 18:43:33;;;;;;;9.4;5.4;;;;;;;16.36;86.2;;;;;
2023/06/24 18:54:33;;;;;;;10.6;6.8;;;;;;;16.32;86.95;;;;;
2023/06/24 19:05:35;;;;;;;10.6;6.8;;;;;;;16.25;87.82;;;;;
2023/06/24 19:15:33;;;;;;;10.6;6.8;;;;;;;16.05;88.8;;;;;
2023/06/24 19:25:33;;;;;;;;;;;;;;;15.99;89.12;;;;;
2023/06/24 19:35:33;;;;;;;15.8;9.3;;;;;;;16.28;88.3;;;;;
2023/06/24 19:46:33;;;;;;;15.8;9.3;;;;;;;16.22;88.44;;;;;
2023/06/24 19:57:38;;;;;;;11.3;8;;;;;;;16.29;87.93;;;;;
2023/06/24 20:08:33;;;;;;;11.3;8;;;;;;;16.18;87.73;;;;;
2023/06/24 20:18:33;;;;;;;11.3;8;;;;;;;16.19;87.54;;;;;
2023/06/24 20:28:33;;;;;;;9.9;6.7;;;;;;;16.03;87.76;;;;;
2023/06/24 20:38:33;;;;;;;9.9;6.7;;;;;;;16.21;87.36;;;;;
2023/06/24 20:48:33;;;;;;;9.9;6.7;;;;;;;16.05;87.56;;;;;
2023/06/24 20:59:33;;;;;;;10.9;7.1;;;;;;;16.03;87.87;;;;;
2023/06/24 21:10:33;;;;;;;10.9;7.1;;;;;;;15.96;88.14;;;;;
2023/06/24 21:21:33;;;;;;;10.9;7.1;;;;;;;15.86;87.83;;;;;
2023/06/24 21:32:33;;;;;;;11.4;7.1;;;;;;;15.83;87.66;;;;;
2023/06/24 21:43:36;;;;;;;11.4;7.1;;;;;;;15.65;87.57;;;;;
2023/06/24 21:54:33;;;;;;;11.4;7.1;;;;;;;15.39;87.81;;;;;
2023/06/24 22:04:33;;;;;;;9.8;7;;;;;;;15.19;88.55;;;;;
2023/06/24 22:14:33;;;;;;;9.8;7;;;;;;;14.96;89.57;;;;;
2023/06/24 22:24:33;;;;;;;9.8;7;;;;;;;14.83;89.59;;;;;
2023/06/24 22:35:33;;;;;;;12.9;7.4;;;;;;;14.67;90.18;;;;;
2023/06/24 22:45:33;;;;;;;12.9;7.4;;;;;;;14.55;90.69;;;;;
2023/06/24 22:55:33;;;;;;;12.9;7.4;;;;;;;14.54;90.74;;;;;
2023/06/24 23:06:33;;;;;;;10.5;8.1;;;;;;;14.54;90.81;;;;;
2023/06/24 23:17:33;;;;;;;10.5;8.1;;;;;;;14.53;90.12;;;;;
2023/06/24 23:28:33;;;;;;;12.7;9.5;;;;;;;14.51;90.6;;;;;
2023/06/24 23:39:33;;;;;;;12.7;9.5;;;;;;;14.58;90.61;;;;;
2023/06/24 23:49:33;;;;;;;12.7;9.5;;;;;;;14.67;90.27;;;;;
2023/06/24 23:59:33;;;;;;;14.2;10.6;;;;;;;14.67;90.41;;;;;
